Time;durP1;ratioP1;P1;durP2;ratioP2;P2;SDS_P1;SDS_P2;PMS_P1;PMS_P2;Temp;Humidity;BMP_temperature;BMP_pressure;BME280_temperature;BME280_humidity;BME280_pressure;Samples;Min_cycle;Max_cycle;Signal;HPM_P1;HPM_P2
2023/07/13 00:00:17;;;;;;;2.53;0.85;;;;;;;19.00;100.00;98688.72;5058252;28;20044;-77
2023/07/13 00:02:43;;;;;;;3.20;0.90;;;;;;;18.86;100.00;98675.69;5045188;28;20017;-77
2023/07/13 00:05:09;;;;;;;0.95;0.70;;;;;;;18.71;100.00;98673.63;5049005;28;20025;-77
2023/07/13 00:07:35;;;;;;;2.28;1.13;;;;;;;18.72;100.00;98697.19;5057780;28;20103;-77
2023/07/13 00:10:01;;;;;;;6.47;1.10;;;;;;;18.49;100.00;98688.19;5074822;28;20053;-78
2023/07/13 00:12:32;;;;;;;1.65;0.88;;;;;;;18.45;100.00;98688.97;5073660;28;20437;-78
2023/07/13 00:14:59;;;;;;;4.18;0.82;;;;;;;18.47;100.00;98689.53;5070277;28;20083;-78
2023/07/13 00:17:25;;;;;;;2.08;0.75;;;;;;;18.33;100.00;98672.69;5033034;28;20017;-77
2023/07/13 00:19:51;;;;;;;2.17;0.82;;;;;;;18.34;100.00;98668.88;5057925;28;20423;-78
2023/07/13 00:22:17;;;;;;;3.60;0.85;;;;;;;18.27;100.00;98660.84;5061493;28;20095;-77
2023/07/13 00:24:44;;;;;;;2.63;0.70;;;;;;;18.31;100.00;98663.88;5044928;28;20033;-77
2023/07/13 00:27:10;;;;;;;2.03;0.80;;;;;;;18.39;100.00;98674.38;5059111;28;20029;-77
2023/07/13 00:29:36;;;;;;;3.22;1.00;;;;;;;18.22;100.00;98659.97;5053239;28;20041;-77
2023/07/13 00:32:03;;;;;;;3.22;0.95;;;;;;;18.29;100.00;98672.38;5065411;28;20653;-77
2023/07/13 00:34:29;;;;;;;1.13;0.60;;;;;;;18.20;100.00;98652.00;5048862;28;20112;-77
2023/07/13 00:36:54;;;;;;;4.45;0.77;;;;;;;18.29;100.00;98671.56;5038563;28;20056;-77
2023/07/13 00:39:20;;;;;;;3.15;0.60;;;;;;;18.25;100.00;98675.88;5060917;28;20104;-77
2023/07/13 00:41:46;;;;;;;7.40;0.90;;;;;;;18.13;100.00;98668.63;5037259;28;20400;-77
2023/07/13 00:44:16;;;;;;;3.22;0.88;;;;;;;18.18;100.00;98678.78;5052663;28;20147;-77
2023/07/13 00:46:41;;;;;;;3.55;0.90;;;;;;;18.09;100.00;98672.94;5052273;28;20021;-77
2023/07/13 00:49:11;;;;;;;3.10;0.80;;;;;;;18.04;100.00;98672.91;5045541;28;20482;-77
2023/07/13 00:51:51;;;;;;;6.32;1.05;;;;;;;17.95;100.00;98668.97;5045685;28;20482;-77
2023/07/13 00:54:35;;;;;;;1.25;0.68;;;;;;;17.90;100.00;98679.84;5029756;28;20017;-77
2023/07/13 00:57:04;;;;;;;2.42;0.90;;;;;;;17.82;100.00;98677.56;5047306;28;20447;-77
2023/07/13 00:59:31;;;;;;;4.82;1.10;;;;;;;17.79;100.00;98684.34;5027898;28;20393;-76
2023/07/13 01:01:56;;;;;;;3.00;1.10;;;;;;;17.71;100.00;98665.59;5051109;28;20056;-77
2023/07/13 01:04:24;;;;;;;4.10;0.95;;;;;;;17.70;100.00;98666.69;5045504;28;20032;-77
2023/07/13 01:06:49;;;;;;;2.95;0.80;;;;;;;17.72;100.00;98687.22;5031184;28;20083;-76
2023/07/13 01:09:15;;;;;;;1.90;0.82;;;;;;;17.50;100.00;98681.75;5048634;28;20029;-77
2023/07/13 01:11:42;;;;;;;6.90;1.10;;;;;;;17.55;100.00;98682.88;5048952;28;20376;-77
2023/07/13 01:14:08;;;;;;;3.85;0.90;;;;;;;17.55;100.00;98694.63;5026789;28;20020;-77
2023/07/13 01:16:35;;;;;;;3.28;0.80;;;;;;;17.65;100.00;98708.47;5049481;28;20597;-77
2023/07/13 01:19:03;;;;;;;3.00;0.70;;;;;;;17.50;100.00;98703.63;5051094;28;20032;-77
2023/07/13 01:21:32;;;;;;;6.65;1.00;;;;;;;17.47;100.00;98692.34;5040413;28;20025;-77
2023/07/13 01:23:57;;;;;;;2.28;1.05;;;;;;;17.38;100.00;98682.91;5053950;28;20047;-77
2023/07/13 01:26:23;;;;;;;4.53;0.80;;;;;;;17.30;100.00;98695.94;5047056;28;20030;-77
2023/07/13 01:28:48;;;;;;;2.58;0.80;;;;;;;17.32;100.00;98690.22;5043155;28;20021;-77
2023/07/13 01:31:13;;;;;;;2.10;0.80;;;;;;;17.32;100.00;98690.22;5030762;28;20028;-77
2023/07/13 01:33:40;;;;;;;3.55;1.00;;;;;;;17.25;100.00;98695.03;5052189;28;20024;-77
2023/07/13 01:36:10;;;;;;;2.38;0.80;;;;;;;17.23;100.00;98698.00;5052324;28;20067;-77
2023/07/13 01:38:36;;;;;;;3.92;1.00;;;;;;;17.20;100.00;98687.56;5048227;28;20028;-77
2023/07/13 01:41:02;;;;;;;5.05;1.05;;;;;;;17.13;100.00;98697.81;5036315;28;20033;-77
2023/07/13 01:43:28;;;;;;;1.33;0.70;;;;;;;17.02;100.00;98693.28;5040717;28;20017;-77
2023/07/13 01:45:53;;;;;;;5.28;0.93;;;;;;;16.87;100.00;98691.09;5048658;28;20567;-77
2023/07/13 01:48:19;;;;;;;5.38;1.08;;;;;;;16.91;100.00;98697.75;5049134;28;20466;-77
2023/07/13 01:50:45;;;;;;;1.20;0.70;;;;;;;16.81;100.00;98695.66;5060709;28;20024;-77
2023/07/13 01:53:10;;;;;;;3.13;1.33;;;;;;;16.71;100.00;98700.91;5029017;28;20382;-77
2023/07/13 01:55:38;;;;;;;2.40;0.70;;;;;;;16.64;100.00;98698.34;5048948;28;20101;-75
2023/07/13 01:58:04;;;;;;;1.17;0.75;;;;;;;16.62;100.00;98699.66;5033496;28;20021;-77
2023/07/13 02:00:30;;;;;;;5.57;1.08;;;;;;;16.59;100.00;98708.34;5046234;28;20024;-77
2023/07/13 02:02:56;;;;;;;1.27;0.77;;;;;;;16.50;100.00;98683.31;5041127;28;20094;-77
2023/07/13 02:05:21;;;;;;;2.22;0.75;;;;;;;16.53;100.00;98709.31;5050213;28;20017;-77
2023/07/13 02:07:47;;;;;;;4.40;1.00;;;;;;;16.42;100.00;98695.47;5051331;28;20024;-77
2023/07/13 02:10:12;;;;;;;2.75;1.10;;;;;;;16.39;100.00;98692.41;5044769;28;20027;-77
2023/07/13 02:12:38;;;;;;;2.97;0.70;;;;;;;16.43;100.00;98721.72;5043271;28;20059;-77
2023/07/13 02:15:05;;;;;;;4.70;1.02;;;;;;;16.27;100.00;98699.78;5049815;28;20368;-77
2023/07/13 02:17:31;;;;;;;2.00;1.00;;;;;;;16.26;100.00;98715.34;5037676;28;20491;-77
2023/07/13 02:19:57;;;;;;;3.28;1.05;;;;;;;16.28;100.00;98729.59;5042804;28;20037;-77
2023/07/13 02:22:22;;;;;;;2.35;0.70;;;;;;;16.19;100.00;98710.06;5047590;28;20059;-77
2023/07/13 02:24:49;;;;;;;3.20;0.93;;;;;;;16.31;100.00;98740.03;5049709;28;20029;-77
2023/07/13 02:27:14;;;;;;;2.15;0.90;;;;;;;16.24;100.00;98735.78;5052760;28;20060;-77
2023/07/13 02:29:39;;;;;;;5.43;1.00;;;;;;;16.05;100.00;98724.19;5024513;28;20025;-77
2023/07/13 02:32:05;;;;;;;2.58;1.10;;;;;;;15.89;100.00;98723.88;5048442;28;20021;-76
2023/07/13 02:34:31;;;;;;;7.13;1.42;;;;;;;15.74;100.00;98704.44;5031169;28;20056;-76
2023/07/13 02:36:56;;;;;;;3.47;1.30;;;;;;;15.87;100.00;98717.00;5049703;28;20033;-76
2023/07/13 02:39:21;;;;;;;1.98;1.38;;;;;;;15.69;100.00;98716.09;5049724;28;20040;-77
2023/07/13 02:41:46;;;;;;;2.75;1.20;;;;;;;15.78;100.00;98732.91;5066693;28;20142;-77
2023/07/13 02:44:13;;;;;;;2.35;1.10;;;;;;;15.68;100.00;98719.00;5073303;28;20025;-77
2023/07/13 02:46:39;;;;;;;3.58;1.25;;;;;;;15.77;100.00;98731.22;5061432;28;20047;-77
2023/07/13 02:49:04;;;;;;;4.47;1.33;;;;;;;15.66;100.00;98713.78;5037354;28;20021;-77
2023/07/13 02:51:33;;;;;;;4.15;1.23;;;;;;;15.71;100.00;98734.91;5034852;28;20547;-77
2023/07/13 02:53:58;;;;;;;2.70;1.10;;;;;;;15.67;100.00;98736.44;5053454;28;20024;-77
2023/07/13 02:56:26;;;;;;;5.25;1.70;;;;;;;15.64;100.00;98739.63;5054921;28;20112;-77
2023/07/13 02:58:53;;;;;;;4.72;1.48;;;;;;;15.58;100.00;98741.41;5039447;28;20478;-77
2023/07/13 03:01:18;;;;;;;3.05;1.60;;;;;;;15.44;100.00;98729.91;5051908;28;20106;-77
2023/07/13 03:03:49;;;;;;;4.20;1.40;;;;;;;15.42;100.00;98748.41;5037812;28;20467;-80
2023/07/13 03:06:15;;;;;;;2.50;1.13;;;;;;;15.37;100.00;98734.66;5038084;28;20115;-82
2023/07/13 03:08:41;;;;;;;2.60;1.10;;;;;;;15.35;100.00;98734.06;5047784;28;20021;-82
2023/07/13 03:11:16;;;;;;;2.22;1.00;;;;;;;15.29;100.00;98735.81;5055268;28;20028;-82
2023/07/13 03:13:41;;;;;;;4.53;1.02;;;;;;;15.33;100.00;98750.66;5060772;28;20024;-78
2023/07/13 03:16:08;;;;;;;5.38;1.00;;;;;;;15.22;100.00;98742.44;5060740;28;20025;-79
2023/07/13 03:18:35;;;;;;;2.97;1.13;;;;;;;15.17;100.00;98736.88;5054482;28;20028;-79
2023/07/13 03:21:00;;;;;;;2.13;1.10;;;;;;;15.34;100.00;98763.22;5031158;28;20067;-79
2023/07/13 03:23:25;;;;;;;4.78;1.38;;;;;;;15.11;100.00;98739.47;5050099;28;20033;-79
2023/07/13 03:26:01;;;;;;;4.60;1.85;;;;;;;15.20;100.00;98771.88;5031122;28;20020;-80
2023/07/13 03:28:26;;;;;;;10.57;2.20;;;;;;;15.18;100.00;98782.16;5064287;28;20059;-79
2023/07/13 03:31:03;;;;;;;5.88;2.00;;;;;;;15.16;100.00;98782.38;5038725;28;20030;-79
2023/07/13 03:33:28;;;;;;;6.45;1.67;;;;;;;15.04;100.00;98768.75;5039621;28;20027;-76
2023/07/13 03:35:53;;;;;;;6.13;1.90;;;;;;;15.04;100.00;98778.81;5048468;28;20037;-76
2023/07/13 03:38:19;;;;;;;5.00;1.95;;;;;;;15.08;100.00;98785.44;5035236;28;20136;-77
2023/07/13 03:40:45;;;;;;;3.00;1.92;;;;;;;15.15;100.00;98793.53;5044994;28;20045;-76
2023/07/13 03:43:10;;;;;;;2.75;1.52;;;;;;;15.08;100.00;98791.72;5036703;28;20491;-76
2023/07/13 03:45:38;;;;;;;8.02;1.90;;;;;;;15.09;100.00;98793.41;5029831;28;20490;-75
2023/07/13 03:48:03;;;;;;;4.95;1.80;;;;;;;15.11;100.00;98799.41;5050058;28;20085;-75
2023/07/13 03:50:29;;;;;;;4.05;1.75;;;;;;;15.18;100.00;98812.97;5049380;28;20108;-73
2023/07/13 03:52:55;;;;;;;4.03;1.52;;;;;;;15.29;100.00;98803.97;5029502;28;20037;-73
2023/07/13 03:55:21;;;;;;;4.28;1.67;;;;;;;15.29;100.00;98814.06;5041418;28;20018;-75
2023/07/13 03:57:47;;;;;;;4.15;1.80;;;;;;;15.24;100.00;98808.47;5032344;28;20024;-76
2023/07/13 04:00:13;;;;;;;3.72;1.65;;;;;;;15.28;100.00;98815.94;5048552;28;20031;-80
2023/07/13 04:02:38;;;;;;;3.90;1.40;;;;;;;15.31;100.00;98822.84;5034763;28;20041;-80
2023/07/13 04:05:04;;;;;;;3.75;1.60;;;;;;;15.36;100.00;98816.69;5034223;28;20048;-79
2023/07/13 04:07:29;;;;;;;5.15;1.77;;;;;;;15.37;100.00;98818.34;5054959;28;20364;-79
2023/07/13 04:09:55;;;;;;;4.00;1.73;;;;;;;15.44;100.00;98816.34;5066856;28;20025;-79
2023/07/13 04:12:20;;;;;;;8.38;1.73;;;;;;;15.47;100.00;98824.03;5040116;28;20053;-81
2023/07/13 04:14:45;;;;;;;3.50;1.42;;;;;;;15.47;100.00;98810.41;5052366;28;20021;-79
2023/07/13 04:17:11;;;;;;;5.72;1.85;;;;;;;15.52;100.00;98826.91;5062248;28;20025;-80
2023/07/13 04:19:36;;;;;;;8.43;1.73;;;;;;;15.45;100.00;98807.09;5048269;28;20084;-80
2023/07/13 04:22:01;;;;;;;7.38;1.98;;;;;;;15.47;100.00;98824.88;5067974;28;20470;-77
2023/07/13 04:24:27;;;;;;;6.90;2.33;;;;;;;15.41;100.00;98825.00;5056302;28;20017;-77
2023/07/13 04:26:52;;;;;;;7.53;1.40;;;;;;;15.27;100.00;98825.22;5036253;28;20033;-79
2023/07/13 04:29:17;;;;;;;12.70;1.63;;;;;;;15.32;100.00;98836.22;5050481;28;20025;-73
2023/07/13 04:31:43;;;;;;;3.53;1.42;;;;;;;15.29;100.00;98838.59;5046097;28;20021;-78
2023/07/13 04:34:08;;;;;;;3.97;1.88;;;;;;;15.32;100.00;98832.66;5028736;28;20471;-78
2023/07/13 04:36:37;;;;;;;2.88;1.40;;;;;;;15.43;100.00;98829.16;5022130;28;20024;-75
2023/07/13 04:39:03;;;;;;;4.63;1.63;;;;;;;15.51;100.00;98836.97;5044715;28;21012;-74
2023/07/13 04:41:29;;;;;;;4.65;1.20;;;;;;;15.48;100.00;98840.19;5061253;22;20429;-62
2023/07/13 04:43:54;;;;;;;2.05;1.38;;;;;;;15.48;100.00;98840.19;5053086;28;20530;-60
2023/07/13 04:46:21;;;;;;;2.70;1.30;;;;;;;15.48;100.00;98837.47;5029995;28;20029;-59
2023/07/13 04:48:48;;;;;;;4.05;1.23;;;;;;;15.45;100.00;98837.91;5027289;28;20025;-59
2023/07/13 04:51:14;;;;;;;6.45;1.52;;;;;;;15.35;100.00;98845.81;5024041;28;20022;-58
2023/07/13 04:53:39;;;;;;;2.83;1.50;;;;;;;15.27;100.00;98848.88;5036611;28;20017;-60
2023/07/13 04:56:05;;;;;;;6.57;1.20;;;;;;;15.14;100.00;98847.19;5026752;28;20392;-65
2023/07/13 04:58:31;;;;;;;3.92;1.30;;;;;;;15.17;100.00;98844.00;5024797;28;20030;-65
2023/07/13 05:01:02;;;;;;;3.15;1.30;;;;;;;15.21;100.00;98847.91;5026695;28;20034;-65
2023/07/13 05:03:27;;;;;;;3.03;1.63;;;;;;;15.32;100.00;98849.00;5012781;28;20021;-59
2023/07/13 05:05:58;;;;;;;5.70;1.52;;;;;;;15.32;100.00;98849.84;5031301;28;20028;-60
2023/07/13 05:08:23;;;;;;;3.58;1.50;;;;;;;15.44;100.00;98844.44;5030162;28;20037;-59
2023/07/13 05:10:51;;;;;;;4.10;1.77;;;;;;;15.68;100.00;98839.00;5015661;28;20041;-59
2023/07/13 05:13:16;;;;;;;6.45;1.35;;;;;;;16.00;100.00;98843.06;5023092;28;20025;-60
2023/07/13 05:15:42;;;;;;;3.55;1.42;;;;;;;16.41;100.00;98838.53;5020412;28;20021;-59
2023/07/13 05:18:08;;;;;;;4.13;1.27;;;;;;;16.99;100.00;98833.16;5028700;28;20123;-59
2023/07/13 05:20:33;;;;;;;4.50;1.25;;;;;;;17.30;100.00;98835.38;5018135;28;20045;-59
2023/07/13 05:22:58;;;;;;;5.22;1.48;;;;;;;17.67;100.00;98834.09;5033212;28;20049;-60
2023/07/13 05:25:24;;;;;;;3.45;1.38;;;;;;;17.84;100.00;98829.47;5027180;28;20175;-60
2023/07/13 05:27:49;;;;;;;5.63;1.40;;;;;;;17.82;100.00;98833.53;5033548;28;20018;-59
2023/07/13 05:30:15;;;;;;;6.28;1.55;;;;;;;17.73;100.00;98838.56;5018242;28;20040;-59
2023/07/13 05:32:41;;;;;;;2.08;1.13;;;;;;;17.72;100.00;98842.38;5023583;28;20018;-59
2023/07/13 05:35:07;;;;;;;4.35;1.33;;;;;;;17.74;100.00;98838.31;5020933;28;20026;-59
2023/07/13 05:37:32;;;;;;;9.05;1.40;;;;;;;17.91;100.00;98827.38;5024021;28;20022;-63
2023/07/13 05:39:57;;;;;;;2.90;1.30;;;;;;;17.95;100.00;98838.69;5018189;28;20446;-59
2023/07/13 05:42:23;;;;;;;3.47;1.52;;;;;;;18.24;100.00;98846.75;5024636;28;20543;-59
2023/07/13 05:44:48;;;;;;;3.72;1.30;;;;;;;18.56;100.00;98836.78;5027451;28;20029;-59
2023/07/13 05:47:14;;;;;;;2.80;1.83;;;;;;;18.70;100.00;98848.19;5020135;28;20022;-59
2023/07/13 05:49:40;;;;;;;4.63;1.17;;;;;;;18.85;100.00;98847.56;5013330;28;20040;-59
2023/07/13 05:52:07;;;;;;;2.35;1.50;;;;;;;18.98;100.00;98857.31;5043045;28;20759;-66
2023/07/13 05:54:33;;;;;;;5.97;1.30;;;;;;;19.10;100.00;98851.69;5020260;28;20406;-66
2023/07/13 05:57:06;;;;;;;6.10;1.80;;;;;;;18.70;100.00;98848.19;5025174;28;20067;-66
2023/07/13 05:59:32;;;;;;;3.40;1.40;;;;;;;18.83;100.00;98849.72;5038816;28;20572;-66
2023/07/13 06:02:00;;;;;;;4.85;1.50;;;;;;;18.96;100.00;98857.56;5020426;28;20160;-66
2023/07/13 06:04:25;;;;;;;4.55;1.67;;;;;;;19.02;100.00;98856.56;5045066;28;20087;-65
2023/07/13 06:06:51;;;;;;;4.45;1.60;;;;;;;19.13;100.00;98851.19;5048390;28;20037;-67
2023/07/13 06:09:16;;;;;;;4.88;1.20;;;;;;;19.24;100.00;98852.94;5025061;28;20125;-67
2023/07/13 06:11:43;;;;;;;3.58;1.23;;;;;;;19.65;100.00;98858.81;5033732;28;20527;-67
2023/07/13 06:14:08;;;;;;;8.13;1.27;;;;;;;20.05;100.00;98861.09;5039460;28;20049;-68
2023/07/13 06:16:33;;;;;;;5.88;1.33;;;;;;;19.91;100.00;98863.47;5027217;28;20067;-68
2023/07/13 06:18:59;;;;;;;4.43;1.10;;;;;;;20.21;100.00;98864.75;5020812;28;20116;-67
2023/07/13 06:21:24;;;;;;;5.80;1.38;;;;;;;20.38;100.00;98872.00;5025992;28;20116;-67
2023/07/13 06:23:51;;;;;;;4.40;1.40;;;;;;;20.58;100.00;98861.97;5018279;28;20029;-67
2023/07/13 06:26:19;;;;;;;3.42;1.40;;;;;;;21.16;100.00;98861.09;5022709;28;20037;-67
2023/07/13 06:28:44;;;;;;;5.38;1.70;;;;;;;21.31;100.00;98863.88;5022486;28;20108;-67
2023/07/13 06:31:11;;;;;;;8.45;1.52;;;;;;;21.17;100.00;98868.25;5019555;28;20167;-67
2023/07/13 06:33:37;;;;;;;6.63;1.20;;;;;;;21.02;100.00;98872.59;5035540;28;20491;-70
2023/07/13 06:36:05;;;;;;;4.43;1.50;;;;;;;21.16;100.00;98889.41;5021317;28;20065;-60
2023/07/13 06:38:31;;;;;;;1.85;1.20;;;;;;;21.54;100.00;98884.59;5021652;28;20477;-60
2023/07/13 06:40:56;;;;;;;3.17;1.08;;;;;;;21.59;100.00;98881.03;5018360;28;20033;-60
2023/07/13 06:43:22;;;;;;;5.45;1.20;;;;;;;21.75;100.00;98887.38;5017662;28;20017;-60
2023/07/13 06:45:49;;;;;;;4.40;1.23;;;;;;;22.12;100.00;98889.03;5034540;28;20076;-60
2023/07/13 06:48:16;;;;;;;1.98;1.00;;;;;;;22.93;100.00;98880.56;5015709;28;20496;-60
2023/07/13 06:50:42;;;;;;;4.38;1.38;;;;;;;24.53;100.00;98878.34;5014523;28;20029;-68
2023/07/13 06:53:08;;;;;;;3.70;1.20;;;;;;;26.59;92.27;98876.97;5025161;28;20072;-61
2023/07/13 06:55:34;;;;;;;3.47;1.23;;;;;;;29.77;72.02;98878.09;5023175;28;20108;-67
2023/07/13 06:57:59;;;;;;;3.42;1.10;;;;;;;31.43;62.11;98882.78;5021389;28;20512;-68
2023/07/13 07:00:25;;;;;;;3.08;1.00;;;;;;;29.79;62.65;98893.34;5022070;28;20032;-61
2023/07/13 07:02:50;;;;;;;4.60;1.20;;;;;;;27.23;67.74;98891.78;5023462;28;20116;-67
2023/07/13 07:05:16;;;;;;;4.70;1.30;;;;;;;24.94;79.36;98897.22;5013470;28;20076;-68
2023/07/13 07:07:41;;;;;;;3.42;1.17;;;;;;;27.10;73.20;98887.03;5024349;28;20025;-61
2023/07/13 07:10:07;;;;;;;3.20;0.95;;;;;;;29.21;64.01;98888.97;5021417;28;20026;-60
2023/07/13 07:12:33;;;;;;;4.13;0.80;;;;;;;29.43;58.67;98891.66;5029380;28;20060;-60
2023/07/13 07:14:58;;;;;;;2.78;1.00;;;;;;;28.62;60.73;98895.66;5015029;28;20373;-60
2023/07/13 07:17:25;;;;;;;3.33;1.30;;;;;;;29.69;56.68;98900.06;5020304;28;20499;-60
2023/07/13 07:19:50;;;;;;;4.00;1.00;;;;;;;31.46;53.84;98900.84;5019814;28;20359;-61
2023/07/13 07:22:15;;;;;;;5.30;1.20;;;;;;;30.90;54.89;98902.97;5026459;28;20080;-60
2023/07/13 07:24:41;;;;;;;4.53;1.13;;;;;;;31.94;52.16;98902.31;5025767;28;20017;-68
2023/07/13 07:27:06;;;;;;;6.32;1.05;;;;;;;34.25;47.86;98901.88;5041035;28;20087;-69
2023/07/13 07:29:32;;;;;;;4.72;0.98;;;;;;;35.63;43.67;98899.31;5018244;28;20037;-68
2023/07/13 07:31:59;;;;;;;2.42;0.65;;;;;;;37.45;40.32;98896.25;5024833;28;20060;-67
2023/07/13 07:34:25;;;;;;;3.75;1.13;;;;;;;36.45;40.52;98902.22;5030692;28;20033;-67
2023/07/13 07:36:50;;;;;;;3.30;1.00;;;;;;;37.19;38.64;98904.72;5019694;28;20374;-68
2023/07/13 07:39:16;;;;;;;8.90;1.08;;;;;;;35.61;39.22;98904.50;5026499;28;20067;-65
2023/07/13 07:41:41;;;;;;;4.03;1.00;;;;;;;36.56;37.93;98906.06;5030048;28;20124;-65
2023/07/13 07:44:09;;;;;;;3.45;0.80;;;;;;;38.56;35.01;98894.81;5027023;28;20104;-65
2023/07/13 07:46:35;;;;;;;6.57;0.80;;;;;;;38.21;35.57;98900.09;5027940;28;20021;-58
2023/07/13 07:49:01;;;;;;;2.70;0.90;;;;;;;39.16;33.57;98890.09;5047173;28;20018;-61
2023/07/13 07:51:26;;;;;;;4.38;0.90;;;;;;;38.80;33.86;98901.09;5023959;28;20025;-60
2023/07/13 07:53:52;;;;;;;3.70;0.70;;;;;;;38.80;34.30;98904.75;5016000;28;20049;-60
2023/07/13 07:56:18;;;;;;;2.53;0.70;;;;;;;38.57;32.48;98898.47;5034597;28;20029;-60
2023/07/13 07:58:44;;;;;;;3.30;0.70;;;;;;;38.20;33.20;98896.47;5028050;28;20467;-61
2023/07/13 08:01:10;;;;;;;2.95;0.90;;;;;;;40.00;30.61;98907.19;5014414;28;20037;-61
2023/07/13 08:03:35;;;;;;;3.30;0.75;;;;;;;38.79;31.52;98902.31;5027706;28;20021;-61
2023/07/13 08:06:01;;;;;;;2.38;0.90;;;;;;;38.69;33.38;98897.38;5018341;28;20026;-61
2023/07/13 08:08:27;;;;;;;2.83;0.68;;;;;;;40.02;30.59;98891.41;5039307;28;20370;-59
2023/07/13 08:10:53;;;;;;;1.17;0.52;;;;;;;39.00;29.65;98888.38;5023252;28;20400;-59
2023/07/13 08:13:20;;;;;;;1.55;0.63;;;;;;;38.24;30.00;98893.66;5014707;28;20092;-58
2023/07/13 08:15:46;;;;;;;1.25;0.60;;;;;;;39.12;31.59;98903.41;5041243;28;20033;-59
2023/07/13 08:18:13;;;;;;;3.42;0.60;;;;;;;40.99;28.86;98893.66;5021613;28;20029;-61
2023/07/13 08:20:40;;;;;;;2.97;0.70;;;;;;;41.96;27.96;98891.47;5013149;28;20036;-61
2023/07/13 08:23:09;;;;;;;4.28;0.73;;;;;;;43.20;26.62;98891.84;5016021;28;20018;-63
2023/07/13 08:25:36;;;;;;;3.30;0.80;;;;;;;42.46;27.16;98900.53;5030473;28;20029;-60
2023/07/13 08:28:03;;;;;;;2.22;0.60;;;;;;;41.68;26.88;98909.41;5034362;28;20052;-63
2023/07/13 08:30:31;;;;;;;2.50;0.60;;;;;;;42.24;27.33;98901.88;5032292;28;20044;-62
2023/07/13 08:32:57;;;;;;;;;;;;;;;42.66;26.53;98902.84;5030653;28;20034;-62
2023/07/13 08:35:25;;;;;;;4.78;0.70;;;;;;;43.53;25.75;98904.53;5025257;28;19923;-67
2023/07/13 08:37:51;;;;;;;1.98;0.70;;;;;;;43.48;25.51;98899.28;5021557;28;20030;-71
2023/07/13 08:40:24;;;;;;;3.60;0.80;;;;;;;41.49;26.14;98902.13;5014521;28;20108;-67
2023/07/13 08:42:56;;;;;;;1.80;0.52;;;;;;;41.64;26.60;98905.78;5023430;28;20022;-69
2023/07/13 08:45:46;;;;;;;2.72;0.75;;;;;;;42.33;25.86;98899.38;5020781;28;20212;-60
2023/07/13 08:48:19;;;;;;;3.92;0.70;;;;;;;42.15;24.81;98901.50;5015266;28;20036;-62
2023/07/13 08:50:58;;;;;;;2.85;0.60;;;;;;;42.43;25.64;98895.69;5025040;28;20029;-61
2023/07/13 08:53:36;;;;;;;1.45;0.50;;;;;;;43.13;24.26;98900.44;5031318;28;20331;-63
2023/07/13 08:56:02;;;;;;;;;;;;;;;42.09;24.89;98912.50;5035279;28;20061;-61
2023/07/13 08:58:28;;;;;;;2.05;0.57;;;;;;;42.49;24.78;98909.47;5024161;28;19949;-70
2023/07/13 09:01:13;;;;;;;2.72;0.75;;;;;;;43.82;24.46;98907.06;5027913;28;20171;-62
2023/07/13 09:03:46;;;;;;;3.03;0.70;;;;;;;43.72;24.93;98902.31;5031476;28;20030;-62
2023/07/13 09:06:17;;;;;;;3.50;0.60;;;;;;;43.19;24.98;98904.47;5038959;28;20029;-69
2023/07/13 09:08:49;;;;;;;2.85;0.70;;;;;;;44.15;24.80;98905.47;5027896;28;20087;-62
2023/07/13 09:11:40;;;;;;;1.77;0.60;;;;;;;42.25;24.80;98909.97;5032337;28;20484;-69
2023/07/13 09:14:37;;;;;;;1.48;0.57;;;;;;;42.95;25.18;98909.16;5044626;28;20029;-62
2023/07/13 09:17:08;;;;;;;3.13;0.68;;;;;;;41.90;26.17;98898.78;5024268;28;20034;-69
2023/07/13 09:19:35;;;;;;;2.22;0.60;;;;;;;43.82;24.81;98894.88;5022649;28;20045;-69
2023/07/13 09:22:05;;;;;;;3.67;0.75;;;;;;;43.52;24.87;98896.41;5028008;28;20049;-62
2023/07/13 09:24:37;;;;;;;1.73;0.70;;;;;;;42.11;26.59;98898.69;5023952;28;20029;-62
2023/07/13 09:27:14;;;;;;;2.35;0.50;;;;;;;42.59;24.55;98898.00;5033156;28;20029;-69
2023/07/13 09:29:45;;;;;;;1.50;0.52;;;;;;;42.39;25.86;98894.88;5025200;28;20030;-69
2023/07/13 09:32:15;;;;;;;1.88;0.70;;;;;;;42.28;25.12;98902.66;5014187;28;20056;-68
2023/07/13 09:34:41;;;;;;;3.00;1.10;;;;;;;42.47;25.56;98899.31;5017551;28;20083;-69
2023/07/13 09:37:08;;;;;;;2.13;0.65;;;;;;;43.72;24.84;98888.06;5022437;28;20034;-69
2023/07/13 09:39:39;;;;;;;2.92;1.02;;;;;;;43.25;25.04;98901.97;5021522;28;20028;-67
2023/07/13 09:42:21;;;;;;;1.55;0.60;;;;;;;44.27;23.93;98903.25;5019417;28;20034;-67
2023/07/13 09:44:54;;;;;;;1.98;0.70;;;;;;;42.58;24.08;98898.44;5037223;28;20083;-68
2023/07/13 09:47:30;;;;;;;1.67;0.70;;;;;;;42.49;25.30;98893.19;5023578;28;20120;-68
2023/07/13 09:50:01;;;;;;;1.75;0.60;;;;;;;43.02;24.89;98894.03;5027433;28;20025;-67
2023/07/13 09:52:40;;;;;;;2.33;0.70;;;;;;;43.59;24.54;98890.66;5032603;28;20414;-69
2023/07/13 09:55:25;;;;;;;2.33;0.65;;;;;;;42.11;24.79;98895.06;5031662;28;20606;-67
2023/07/13 09:57:52;;;;;;;4.78;0.73;;;;;;;42.25;24.93;98890.06;5024116;28;20150;-68
2023/07/13 10:00:28;;;;;;;2.75;0.77;;;;;;;40.66;26.12;98893.63;5024271;28;20120;-62
2023/07/13 10:03:21;;;;;;;1.50;0.70;;;;;;;38.93;26.42;98898.81;5016339;28;20087;-69
2023/07/13 10:05:50;;;;;;;2.75;0.50;;;;;;;39.94;26.02;98886.94;5022642;28;20429;-67
2023/07/13 10:08:35;;;;;;;2.58;0.80;;;;;;;38.79;26.68;98894.63;5028776;28;20393;-68
2023/07/13 10:11:33;;;;;;;2.90;0.80;;;;;;;41.92;25.70;98894.31;5022863;28;20033;-67
2023/07/13 10:14:01;;;;;;;3.63;0.65;;;;;;;43.32;25.41;98887.69;5020993;28;20059;-69
2023/07/13 10:16:33;;;;;;;2.45;0.70;;;;;;;45.67;23.73;98881.75;5017851;28;20038;-61
2023/07/13 10:19:05;;;;;;;3.28;0.88;;;;;;;46.75;22.17;98885.97;5026285;28;20441;-61
2023/07/13 10:21:43;;;;;;;3.90;0.85;;;;;;;45.62;23.88;98885.16;5025103;28;20127;-61
2023/07/13 10:24:20;;;;;;;2.22;0.70;;;;;;;41.93;25.33;98887.41;5019646;28;20025;-62
2023/07/13 10:26:53;;;;;;;3.08;0.70;;;;;;;38.03;29.42;98880.91;5024601;28;20084;-61
2023/07/13 10:29:23;;;;;;;3.78;0.80;;;;;;;39.10;28.99;98883.19;5022217;28;20037;-61
2023/07/13 10:31:51;;;;;;;3.08;0.77;;;;;;;39.05;27.87;98880.72;5016557;28;20036;-61
2023/07/13 10:34:18;;;;;;;1.65;0.80;;;;;;;38.95;27.32;98885.09;5042363;28;20121;-68
2023/07/13 10:36:48;;;;;;;4.50;0.82;;;;;;;39.91;26.75;98886.94;5008871;28;20061;-67
2023/07/13 10:39:21;;;;;;;1.73;0.75;;;;;;;38.86;27.12;98893.91;5022658;28;20037;-61
2023/07/13 10:41:53;;;;;;;3.40;0.70;;;;;;;36.66;30.11;98891.34;5028041;28;20061;-67
2023/07/13 10:44:28;;;;;;;3.63;0.80;;;;;;;35.48;31.60;98895.34;5027007;28;20096;-67
2023/07/13 10:47:03;;;;;;;2.90;0.70;;;;;;;36.73;29.90;98888.63;5021342;28;20025;-67
2023/07/13 10:49:31;;;;;;;2.72;0.70;;;;;;;37.02;29.78;98891.91;5012506;28;20422;-67
2023/07/13 10:51:58;;;;;;;1.05;0.68;;;;;;;37.74;27.50;98887.38;5024420;28;20049;-67
2023/07/13 10:54:34;;;;;;;1.60;0.50;;;;;;;37.23;27.76;98895.13;5028205;28;20451;-67
2023/07/13 10:57:21;;;;;;;3.33;0.95;;;;;;;35.83;29.84;98883.25;5019934;28;20036;-66
2023/07/13 11:00:15;;;;;;;3.33;0.90;;;;;;;36.03;29.65;98888.91;5027572;28;20028;-66
2023/07/13 11:02:42;;;;;;;4.32;0.85;;;;;;;38.30;29.98;98880.78;5031899;28;20740;-59
2023/07/13 11:05:29;;;;;;;2.70;0.75;;;;;;;40.04;27.59;98879.69;5027223;28;20493;-60
2023/07/13 11:08:02;;;;;;;3.78;0.82;;;;;;;41.11;25.95;98877.06;5014170;28;20437;-60
2023/07/13 11:10:51;;;;;;;4.15;0.75;;;;;;;39.33;27.09;98874.47;5024939;28;20043;-61
2023/07/13 11:13:45;;;;;;;3.70;0.80;;;;;;;40.66;26.13;98870.13;5024012;28;20030;-60
2023/07/13 11:16:35;;;;;;;3.03;0.70;;;;;;;41.64;25.11;98868.84;5024560;28;20034;-60
2023/07/13 11:19:07;;;;;;;2.53;0.60;;;;;;;40.63;25.24;98854.69;5023580;28;20534;-60
2023/07/13 11:21:34;;;;;;;2.42;0.65;;;;;;;42.52;25.84;98854.59;5024884;28;20182;-61
2023/07/13 11:24:17;;;;;;;1.50;0.60;;;;;;;43.69;24.73;98851.88;5025535;28;20034;-61
2023/07/13 11:26:43;;;;;;;3.47;0.80;;;;;;;44.79;23.60;98851.56;5020805;28;20025;-61
2023/07/13 11:29:43;;;;;;;2.58;0.70;;;;;;;45.30;23.24;98857.97;5029746;28;20403;-62
2023/07/13 11:32:30;;;;;;;4.05;0.70;;;;;;;44.69;23.45;98847.59;5030962;28;20044;-61
2023/07/13 11:34:58;;;;;;;1.48;0.40;;;;;;;45.21;23.51;98857.75;5027866;28;20089;-61